Terminal Aerodrome Forecast
Issued by NWS Charleston, WV

Current Version | Previous Version | Graphics & Text | Print | Product List | Glossary On
Versions: 1 2 3 4 5 6 7 8 9 10 11 12 13 14 15 16 17 18 19 20 21 22 23 24 25 26
863
FTUS41 KRLX 151005 AAA
TAFHTS
TAF AMD
KHTS 151005Z 1510/1606 14003KT P6SM OVC035
      TEMPO 1513/1515 6SM -SN OVC025
     FM151900 18006KT P6SM OVC060
     FM152300 23006KT P6SM OVC060
     FM160300 25004KT P6SM OVC035
     FM160500 26005KT 4SM -SN OVC025=

USA.gov is the U.S. government's official web portal to all federal, state and local government web resources and services.